createdAt,value
2022-11-16T05:39:01.007Z,0.1
2022-11-16T05:41:01.188Z,0.2
2022-11-16T05:42:00.980Z,0.3
2022-11-16T05:44:01.107Z,0.4
2022-11-16T05:47:01.372Z,0.6
2022-11-16T05:48:01.007Z,0.7
2022-11-16T05:50:01.068Z,0.8
2022-11-16T05:51:01.034Z,0.9
2022-11-16T05:53:01.567Z,1.0
2022-11-16T06:04:01.084Z,1.1
2022-11-16T06:06:01.213Z,1.2
2022-11-16T06:07:00.990Z,1.3
2022-11-16T06:09:00.974Z,1.5
2022-11-16T06:10:00.982Z,1.6
2022-11-16T06:11:01.180Z,1.7
2022-11-16T06:12:00.982Z,1.9
2022-11-16T06:13:00.982Z,2.1
2022-11-16T06:14:00.980Z,2.4
2022-11-16T06:15:01.639Z,2.7
2022-11-16T06:16:01.569Z,2.9
2022-11-16T06:17:00.986Z,3.4
2022-11-16T06:18:00.995Z,3.9
2022-11-16T06:19:00.985Z,4.6
2022-11-16T06:20:00.988Z,5.3
2022-11-16T06:21:01.188Z,6.1
2022-11-16T06:22:01.000Z,7.1
2022-11-16T06:23:00.993Z,8.2
2022-11-16T06:24:00.981Z,10.1
2022-11-16T06:25:00.996Z,11.9
2022-11-16T06:26:01.193Z,13.8
2022-11-16T06:27:00.984Z,15.9
2022-11-16T06:28:04.089Z,18.1
2022-11-16T06:29:00.989Z,21.0
2022-11-16T06:31:01.183Z,26.9
2022-11-16T06:32:01.248Z,31.8
2022-11-16T06:33:00.991Z,36.7
2022-11-16T06:34:00.979Z,44.5
2022-11-16T06:35:01.008Z,52.2
2022-11-16T06:36:01.195Z,59.9
2022-11-16T06:37:00.983Z,71.8
2022-11-16T06:38:00.988Z,83.7
2022-11-16T06:39:00.990Z,94.7
2022-11-16T06:40:01.002Z,111.1
2022-11-16T06:41:01.188Z,127.6
2022-11-16T06:42:00.986Z,147.3
2022-11-16T06:43:00.987Z,167.1
2022-11-16T06:44:00.978Z,185.9
2022-11-16T06:46:01.195Z,243.3
2022-11-16T06:47:00.983Z,286.0
2022-11-16T06:48:01.014Z,328.7
2022-11-16T06:49:00.987Z,368.3
2022-11-16T06:50:01.002Z,408.5
2022-11-16T06:51:01.187Z,448.7
2022-11-16T06:52:00.993Z,488.9
2022-11-16T06:53:00.994Z,529.1
2022-11-16T06:54:00.987Z,569.3
2022-11-16T06:55:01.003Z,609.9
2022-11-16T06:56:01.199Z,650.4
2022-11-16T06:57:00.987Z,684.8
2022-11-16T06:58:01.000Z,719.2
2022-11-16T06:59:06.000Z,753.6
2022-11-16T07:01:01.191Z,808.7
2022-11-16T07:02:01.072Z,827.1
2022-11-16T07:03:00.995Z,845.6
2022-11-16T07:04:01.364Z,864.1
2022-11-16T07:06:16.034Z,907.8
2022-11-16T07:07:16.089Z,918.2
2022-11-16T07:08:01.416Z,928.6
2022-11-16T07:09:00.995Z,939.0
2022-11-16T07:10:01.260Z,956.2
2022-11-16T07:11:04.248Z,973.4
2022-11-16T07:12:01.000Z,993.2
2022-11-16T07:13:06.201Z,1013.0
2022-11-16T07:14:00.998Z,1032.8
2022-11-16T07:16:01.055Z,1060.1
2022-11-16T07:17:04.026Z,1079.4
2022-11-16T07:18:01.231Z,1098.7
2022-11-16T07:19:00.991Z,1117.9
2022-11-16T07:21:00.989Z,1181.1
2022-11-16T07:22:00.994Z,1233.5
2022-11-16T07:23:01.308Z,1285.9
2022-11-16T07:24:00.996Z,1338.3
2022-11-16T07:25:01.014Z,1393.0
2022-11-16T07:26:01.009Z,1447.7
2022-11-16T07:27:01.008Z,1529.9
2022-11-16T07:28:06.272Z,1612.1
2022-11-16T07:29:01.007Z,1694.3
2022-11-16T07:30:01.554Z,1792.6
2022-11-16T07:31:01.004Z,1890.9
2022-11-16T07:32:01.002Z,1976.1
2022-11-16T07:33:01.209Z,2061.3
2022-11-16T07:34:01.006Z,2146.5
2022-11-16T07:36:01.366Z,2307.3
2022-11-16T07:37:01.260Z,2407.3
2022-11-16T07:38:01.221Z,2507.3
2022-11-16T07:39:01.004Z,2607.3
2022-11-16T07:40:01.017Z,2669.5
2022-11-16T07:41:01.009Z,2731.7
2022-11-16T07:42:01.039Z,2804.4
2022-11-16T07:43:06.630Z,2877.1
2022-11-16T07:44:09.584Z,2949.7
2022-11-16T07:46:21.460Z,3086.4
2022-11-16T07:47:01.000Z,3172.3
2022-11-16T07:48:01.551Z,3258.3
2022-11-16T07:49:03.333Z,3344.2
2022-11-16T07:50:01.011Z,3426.7
2022-11-16T07:51:01.001Z,3509.3
2022-11-16T07:52:01.082Z,3634.9
2022-11-16T07:53:01.220Z,3760.5
2022-11-16T07:54:01.103Z,3886.1
2022-11-16T07:55:01.107Z,4084.4
2022-11-16T07:56:06.070Z,4282.7
2022-11-16T07:57:01.037Z,4477.1
2022-11-16T07:58:01.238Z,4671.4
2022-11-16T07:59:01.005Z,4865.7
2022-11-16T08:00:01.441Z,5072.7
2022-11-16T08:01:01.007Z,5279.7
2022-11-16T08:02:01.029Z,5468.1
2022-11-16T08:03:01.399Z,5656.4
2022-11-16T08:04:01.006Z,5844.7
2022-11-16T08:05:01.017Z,6080.5
2022-11-16T08:06:01.010Z,6316.3
2022-11-16T08:07:01.177Z,6451.1
2022-11-16T08:08:01.405Z,6585.8
2022-11-16T08:09:01.014Z,6720.5
2022-11-16T08:11:01.014Z,6989.7
2022-11-16T08:12:01.086Z,7119.1
2022-11-16T08:13:01.346Z,7248.4
2022-11-16T08:14:01.105Z,7377.7
2022-11-16T08:16:01.029Z,7638.0
2022-11-16T08:17:01.008Z,7766.3
2022-11-16T08:18:01.357Z,7894.7
2022-11-16T08:19:01.011Z,8023.0
2022-11-16T08:21:01.016Z,8040.5
2022-11-16T08:22:01.050Z,8067.5
2022-11-16T08:23:01.225Z,8094.6
2022-11-16T08:24:01.129Z,8121.7
2022-11-16T08:25:01.022Z,8071.5
2022-11-16T08:26:01.022Z,8021.3
2022-11-16T08:27:01.018Z,8052.2
2022-11-16T08:28:01.228Z,8083.1
2022-11-16T08:29:01.010Z,8114.1
2022-11-16T08:30:01.778Z,8164.0
2022-11-16T08:31:01.300Z,8213.9
2022-11-16T08:32:01.018Z,8240.4
2022-11-16T08:33:01.223Z,8266.9
2022-11-16T08:34:01.018Z,8293.3
2022-11-16T08:36:01.007Z,8697.7
2022-11-16T08:37:01.016Z,8882.4
2022-11-16T08:38:01.417Z,9067.1
2022-11-16T08:39:01.010Z,9251.7
2022-11-16T08:40:01.143Z,9513.8
2022-11-16T08:41:01.014Z,9775.9
2022-11-16T08:42:01.036Z,9845.3
2022-11-16T08:43:01.223Z,9914.8
2022-11-16T08:44:01.014Z,9984.3
2022-11-16T08:45:01.862Z,10052.1
2022-11-16T08:46:01.017Z,10120.0
2022-11-16T08:47:01.025Z,10329.6
2022-11-16T08:48:03.863Z,10539.2
2022-11-16T08:49:01.033Z,10748.8
2022-11-16T08:50:01.031Z,10760.9
2022-11-16T08:51:18.333Z,10773.1
2022-11-16T08:52:01.006Z,10880.1
2022-11-16T08:53:01.242Z,10987.2
2022-11-16T08:54:01.032Z,11094.3
2022-11-16T08:56:01.050Z,11353.2
2022-11-16T08:57:01.029Z,11755.3
2022-11-16T08:58:01.226Z,12157.3
2022-11-16T08:59:01.018Z,12559.4
2022-11-16T09:01:01.029Z,13174.6
2022-11-16T09:02:01.090Z,13525.9
2022-11-16T09:03:01.225Z,13877.1
2022-11-16T09:04:01.119Z,14228.4
2022-11-16T09:06:01.023Z,15183.3
2022-11-16T09:07:01.168Z,15697.7
2022-11-16T09:08:01.249Z,16212.1
2022-11-16T09:09:01.038Z,16726.5
2022-11-16T09:10:01.126Z,17306.7
2022-11-16T09:11:01.050Z,17886.8
2022-11-16T09:12:01.172Z,18277.8
2022-11-16T09:13:01.237Z,18668.8
2022-11-16T09:14:01.035Z,19059.8
2022-11-16T09:16:01.228Z,20036.7
2022-11-16T09:17:01.034Z,20227.7
2022-11-16T09:18:01.268Z,20418.6
2022-11-16T09:19:01.163Z,20609.5
2022-11-16T09:21:01.046Z,20745.8
2022-11-16T09:22:01.093Z,20609.3
2022-11-16T09:23:01.239Z,20472.7
2022-11-16T09:24:06.100Z,20336.2
2022-11-16T09:25:01.044Z,20033.9
2022-11-16T09:26:01.033Z,19731.5
2022-11-16T09:27:01.038Z,19439.7
2022-11-16T09:28:01.302Z,19147.9
2022-11-16T09:29:01.098Z,18856.1
2022-11-16T09:31:01.032Z,18084.0
2022-11-16T09:32:01.033Z,17595.9
2022-11-16T09:33:01.283Z,17107.9
2022-11-16T09:34:01.097Z,16619.8
2022-11-16T09:36:01.095Z,15709.4
2022-11-16T09:37:01.044Z,15310.2
2022-11-16T09:38:01.247Z,14911.0
2022-11-16T09:39:26.113Z,14511.8
2022-11-16T09:40:01.026Z,14214.7
2022-11-16T09:41:01.043Z,13917.7
2022-11-16T09:42:01.034Z,13616.6
2022-11-16T09:43:01.407Z,13315.5
2022-11-16T09:44:01.091Z,13014.5
2022-11-16T09:46:01.099Z,12431.8
2022-11-16T09:47:01.050Z,12325.5
2022-11-16T09:48:01.394Z,12219.3
2022-11-16T09:49:01.107Z,12113.0
2022-11-16T09:50:03.818Z,12089.2
2022-11-16T09:51:01.101Z,12065.4
2022-11-16T09:52:01.096Z,12065.5
2022-11-16T09:54:01.317Z,12065.6
2022-11-16T09:56:01.036Z,12011.9
2022-11-16T09:57:01.044Z,11973.9
2022-11-16T09:58:01.047Z,11935.9
2022-11-16T09:59:01.247Z,11897.9
2022-11-16T10:01:01.111Z,12360.5
2022-11-16T10:02:01.043Z,12382.1
2022-11-16T10:03:01.041Z,12403.6
2022-11-16T10:04:01.264Z,12425.1
2022-11-16T10:05:01.054Z,12503.8
2022-11-16T10:06:01.041Z,12582.5
2022-11-16T10:07:01.095Z,12794.9
2022-11-16T10:08:01.042Z,13007.4
2022-11-16T10:09:01.246Z,13219.9
2022-11-16T10:10:01.343Z,13661.5
2022-11-16T10:11:01.044Z,14103.2
2022-11-16T10:12:01.041Z,14287.3
2022-11-16T10:13:01.044Z,14471.3
2022-11-16T10:14:04.125Z,14655.4
2022-11-16T10:15:01.942Z,14532.3
2022-11-16T10:16:01.068Z,14409.3
2022-11-16T10:17:01.040Z,14486.0
2022-11-16T10:18:01.039Z,14562.7
2022-11-16T10:19:02.303Z,14639.5
2022-11-16T10:20:01.078Z,14548.3
2022-11-16T10:21:01.046Z,14457.2
2022-11-16T10:22:06.055Z,14358.8
2022-11-16T10:23:01.039Z,14260.4
2022-11-16T10:24:01.310Z,14162.0
2022-11-16T10:25:01.131Z,13728.7
2022-11-16T10:26:01.045Z,13295.3
2022-11-16T10:27:01.040Z,13023.6
2022-11-16T10:28:01.045Z,12751.9
2022-11-16T10:29:01.245Z,12480.1
2022-11-16T10:31:01.091Z,11971.5
2022-11-16T10:32:01.165Z,11832.2
2022-11-16T10:33:01.197Z,11692.9
2022-11-16T10:34:01.261Z,11553.7
2022-11-16T10:35:01.127Z,11500.5
2022-11-16T10:36:01.049Z,11447.4
2022-11-16T10:37:01.043Z,11400.4
2022-11-16T10:38:01.169Z,11353.4
2022-11-16T10:39:01.771Z,11306.4
2022-11-16T10:40:02.147Z,11193.3
2022-11-16T10:41:01.064Z,11080.3
2022-11-16T10:42:06.194Z,11177.5
2022-11-16T10:43:01.046Z,11274.8
2022-11-16T10:44:02.342Z,11372.1
2022-11-16T10:46:01.169Z,11283.4
2022-11-16T10:47:01.038Z,11196.7
2022-11-16T10:48:01.171Z,11110.1
2022-11-16T10:49:01.387Z,11023.4
2022-11-16T10:50:01.057Z,10957.7
2022-11-16T10:51:01.117Z,10891.9
2022-11-16T10:52:01.108Z,10818.2
2022-11-16T10:53:01.063Z,10744.5
2022-11-16T10:54:01.269Z,10670.7
2022-11-16T10:56:01.109Z,10561.0
2022-11-16T10:57:02.073Z,10343.7
2022-11-16T10:58:01.046Z,10126.3
2022-11-16T10:59:01.263Z,9909.0
2022-11-16T11:01:01.142Z,9907.8
2022-11-16T11:02:01.057Z,9862.9
2022-11-16T11:03:01.049Z,9818.1
2022-11-16T11:04:01.566Z,9773.2
2022-11-16T11:05:01.071Z,9794.7
2022-11-16T11:06:01.127Z,9816.3
2022-11-16T11:07:01.139Z,9718.7
2022-11-16T11:08:01.055Z,9621.1
2022-11-16T11:09:01.299Z,9523.5
2022-11-16T11:10:01.082Z,9466.9
2022-11-16T11:11:01.062Z,9410.4
2022-11-16T11:12:01.065Z,9345.2
2022-11-16T11:13:01.055Z,9280.0
2022-11-16T11:14:01.268Z,9214.8
2022-11-16T11:15:01.730Z,9191.4
2022-11-16T11:16:01.070Z,9168.0
2022-11-16T11:17:01.058Z,9123.8
2022-11-16T11:18:01.067Z,9079.6
2022-11-16T11:19:01.303Z,9035.4
2022-11-16T11:20:01.186Z,8916.3
2022-11-16T11:21:01.066Z,8797.3
2022-11-16T11:22:01.058Z,8758.9
2022-11-16T11:23:01.061Z,8720.5
2022-11-16T11:24:16.274Z,8682.1
2022-11-16T11:25:01.061Z,8787.0
2022-11-16T11:26:01.061Z,8891.9
2022-11-16T11:27:01.056Z,8965.2
2022-11-16T11:28:01.073Z,9038.5
2022-11-16T11:29:01.270Z,9111.7
2022-11-16T11:30:01.884Z,9410.6
2022-11-16T11:31:01.060Z,9709.5
2022-11-16T11:32:01.076Z,9993.4
2022-11-16T11:33:01.065Z,10277.3
2022-11-16T11:34:01.268Z,10561.3
2022-11-16T11:35:01.073Z,10912.5
2022-11-16T11:36:01.191Z,11263.7
2022-11-16T11:37:01.057Z,11532.5
2022-11-16T11:38:04.883Z,11801.3
2022-11-16T11:39:01.404Z,12070.1
2022-11-16T11:40:01.075Z,12096.3
2022-11-16T11:41:01.095Z,12122.5
2022-11-16T11:42:01.060Z,12128.4
2022-11-16T11:43:01.065Z,12134.3
2022-11-16T11:44:01.267Z,12140.3
2022-11-16T11:45:01.761Z,11920.3
2022-11-16T11:46:01.130Z,11700.3
2022-11-16T12:10:01.347Z,9741.0
2022-11-16T12:12:00.125Z,9997.7
2022-11-16T12:13:00.169Z,10126.0
2022-11-16T12:14:00.338Z,10203.0
2022-11-16T12:15:00.906Z,9978.7
2022-11-16T12:16:00.180Z,9818.4
2022-11-16T12:17:00.124Z,9932.1
2022-11-16T12:18:00.153Z,10020.6
2022-11-16T12:19:00.125Z,10091.3
2022-11-16T12:20:00.371Z,10217.3
2022-11-16T12:21:00.125Z,10322.3
2022-11-16T12:22:00.139Z,10146.5
2022-11-16T12:23:03.861Z,9995.8
2022-11-16T12:24:00.132Z,9865.2
2022-11-16T12:25:00.338Z,9823.1
2022-11-16T12:26:00.256Z,9780.9
2022-11-16T12:27:00.136Z,9651.2
2022-11-16T12:28:00.154Z,9521.5
2022-11-16T12:29:00.125Z,9391.7
2022-11-16T12:30:02.140Z,9250.5
2022-11-16T12:31:00.128Z,9109.2
2022-11-16T12:32:00.125Z,8774.5
2022-11-16T12:33:00.165Z,8439.9
2022-11-16T12:34:00.153Z,8105.2
2022-11-16T12:35:00.826Z,7725.5
2022-11-16T12:36:00.122Z,7345.7
2022-11-16T12:37:00.126Z,7136.3
2022-11-16T12:38:00.158Z,6926.9
2022-11-16T12:39:00.118Z,6717.5
2022-11-16T12:40:00.340Z,6498.5
2022-11-16T12:41:00.135Z,6279.5
2022-11-16T12:42:00.251Z,6055.7
2022-11-16T12:43:00.148Z,5831.8
2022-11-16T12:44:00.201Z,5607.9
2022-11-16T12:45:01.407Z,5506.5
2022-11-16T12:46:00.125Z,5405.0
2022-11-16T12:47:00.135Z,5370.1
2022-11-16T12:48:00.391Z,5335.1
2022-11-16T12:49:00.127Z,5300.2
2022-11-16T12:50:01.127Z,5277.4
2022-11-16T12:51:00.126Z,5254.6
2022-11-16T12:52:00.135Z,5256.1
2022-11-16T12:53:00.163Z,5257.7
2022-11-16T12:54:00.136Z,5259.2
2022-11-16T12:55:28.175Z,5254.7
2022-11-16T12:56:00.106Z,5250.1
2022-11-16T12:57:00.137Z,5265.7
2022-11-16T12:58:01.288Z,5281.3
2022-11-16T12:59:00.137Z,5296.9
2022-11-16T13:00:01.113Z,5357.2
2022-11-16T13:01:00.170Z,5417.5
2022-11-16T13:02:00.659Z,5442.5
2022-11-16T13:03:00.171Z,5467.6
2022-11-16T13:04:00.134Z,5492.7
2022-11-16T13:05:15.161Z,5549.3
2022-11-16T13:06:01.508Z,5605.9
2022-11-16T13:07:00.214Z,5661.9
2022-11-16T13:08:00.181Z,5718.0
2022-11-16T13:09:00.147Z,5774.1
2022-11-16T13:10:00.180Z,5750.6
2022-11-16T13:11:00.527Z,5727.1
2022-11-16T13:12:00.137Z,5715.9
2022-11-16T13:13:22.249Z,5704.7
2022-11-16T13:14:00.611Z,5693.5
2022-11-16T13:15:01.169Z,5630.7
2022-11-16T13:16:00.553Z,5567.9
2022-11-16T13:17:00.140Z,5528.8
2022-11-16T13:18:00.184Z,5489.7
2022-11-16T13:19:01.167Z,5450.5
2022-11-16T13:20:00.151Z,5319.3
2022-11-16T13:21:00.351Z,5188.1
2022-11-16T13:22:00.155Z,5089.5
2022-11-16T13:23:00.175Z,4990.8
2022-11-16T13:24:00.144Z,4892.1
2022-11-16T13:25:00.167Z,4849.3
2022-11-16T13:26:00.353Z,4806.4
2022-11-16T13:27:00.151Z,4746.7
2022-11-16T13:28:00.188Z,4686.9
2022-11-16T13:29:00.157Z,4627.2
2022-11-16T13:30:00.755Z,4582.0
2022-11-16T13:31:00.367Z,4536.8
2022-11-16T13:32:00.147Z,4510.2
2022-11-16T13:33:00.191Z,4483.6
2022-11-16T13:34:00.151Z,4457.0
2022-11-16T13:35:01.090Z,4499.0
2022-11-16T13:36:00.617Z,4541.0
2022-11-16T13:37:00.154Z,4572.5
2022-11-16T13:38:00.178Z,4603.9
2022-11-16T13:39:00.286Z,4635.4
2022-11-16T13:40:00.176Z,4594.7
2022-11-16T13:41:00.360Z,4553.9
2022-11-16T13:42:00.155Z,4550.1
2022-11-16T13:43:00.186Z,4546.2
2022-11-16T13:44:00.173Z,4542.3
2022-11-16T13:45:00.763Z,4600.3
2022-11-16T13:46:00.440Z,4658.2
2022-11-16T13:47:00.148Z,4712.7
2022-11-16T13:48:00.584Z,4767.3
2022-11-16T13:49:01.181Z,4821.8
2022-11-16T13:50:00.181Z,4894.1
2022-11-16T13:51:00.853Z,4966.3
2022-11-16T13:52:11.524Z,4962.1
2022-11-16T13:54:04.010Z,4957.8
2022-11-16T14:22:01.002Z,4101.0
2022-11-16T14:23:01.010Z,3866.0
2022-11-16T14:24:01.012Z,3725.0
2022-11-16T14:25:01.469Z,3502.5
2022-11-16T14:26:01.023Z,3343.6
2022-11-16T14:27:01.009Z,3295.8
2022-11-16T14:28:01.006Z,3258.6
2022-11-16T14:29:01.109Z,3228.8
2022-11-16T14:30:01.809Z,3200.3
2022-11-16T14:31:01.005Z,3176.5
2022-11-16T14:32:01.001Z,3116.7
2022-11-16T14:33:01.005Z,3065.4
2022-11-16T14:34:01.007Z,3021.0
2022-11-16T14:35:01.276Z,2885.1
2022-11-16T14:36:01.025Z,2749.3
2022-11-16T14:37:01.015Z,2663.9
2022-11-16T14:38:01.002Z,2578.5
2022-11-16T14:39:01.002Z,2493.1
2022-11-16T14:40:01.475Z,2489.8
2022-11-16T14:41:01.006Z,2486.5
2022-11-16T14:42:01.004Z,2398.5
2022-11-16T14:43:15.735Z,2310.5
2022-11-16T14:44:00.986Z,2222.5
2022-11-16T14:45:06.946Z,2160.7
2022-11-16T14:46:01.012Z,2098.8
2022-11-16T14:47:01.011Z,2050.0
2022-11-16T14:48:01.004Z,2001.2
2022-11-16T14:49:01.020Z,1952.4
2022-11-16T14:50:02.122Z,1901.5
2022-11-16T14:51:01.012Z,1850.7
2022-11-16T14:52:01.081Z,1830.5
2022-11-16T14:53:01.066Z,1810.3
2022-11-16T14:54:01.016Z,1790.1
2022-11-16T14:55:01.293Z,1740.5
2022-11-16T14:56:01.008Z,1690.9
2022-11-16T14:57:01.016Z,1685.6
2022-11-16T14:58:01.279Z,1680.3
2022-11-16T14:59:01.018Z,1675.1
2022-11-16T15:01:02.086Z,1579.5
2022-11-16T15:02:01.008Z,1564.3
2022-11-16T15:03:02.736Z,1549.2
2022-11-16T15:04:01.021Z,1534.1
2022-11-16T15:05:01.494Z,1485.4
2022-11-16T15:06:01.008Z,1436.7
2022-11-16T15:07:01.029Z,1377.4
2022-11-16T15:08:01.044Z,1318.1
2022-11-16T15:09:01.016Z,1258.7
2022-11-16T15:10:01.236Z,1179.3
2022-11-16T15:11:01.014Z,1099.8
2022-11-16T15:12:01.012Z,1030.3
2022-11-16T15:13:01.030Z,960.7
2022-11-16T15:14:01.304Z,891.2
2022-11-16T15:15:01.919Z,827.8
2022-11-16T15:16:01.054Z,764.4
2022-11-16T15:17:01.019Z,690.9
2022-11-16T15:18:02.131Z,617.3
2022-11-16T15:19:01.022Z,543.8
2022-11-16T15:20:01.264Z,500.7
2022-11-16T15:21:01.049Z,457.7
2022-11-16T15:22:01.024Z,427.1
2022-11-16T15:23:01.024Z,396.5
2022-11-16T15:24:23.830Z,365.9
2022-11-16T15:25:01.180Z,349.2
2022-11-16T15:26:01.019Z,332.5
2022-11-16T15:27:01.023Z,307.0
2022-11-16T15:28:01.279Z,281.5
2022-11-16T15:29:01.284Z,255.9
2022-11-16T15:30:01.800Z,242.1
2022-11-16T15:31:01.068Z,228.3
2022-11-16T15:32:01.018Z,210.7
2022-11-16T15:33:01.085Z,193.1
2022-11-16T15:34:01.025Z,175.5
2022-11-16T15:35:05.272Z,153.5
2022-11-16T15:36:01.071Z,131.5
2022-11-16T15:37:01.033Z,120.1
2022-11-16T15:38:01.025Z,108.6
2022-11-16T15:39:01.021Z,97.1
2022-11-16T15:41:01.051Z,81.9
2022-11-16T15:42:03.917Z,74.7
2022-11-16T15:43:01.024Z,67.4
2022-11-16T15:44:13.832Z,60.1
2022-11-16T15:46:01.021Z,47.9
2022-11-16T15:47:01.037Z,43.8
2022-11-16T15:48:01.023Z,39.7
2022-11-16T15:49:01.020Z,35.7
2022-11-16T15:51:04.402Z,28.2
2022-11-16T15:52:01.039Z,24.8
2022-11-16T15:53:01.020Z,21.4
2022-11-16T15:54:01.029Z,18.0
2022-11-16T15:55:01.502Z,15.5
2022-11-16T15:56:01.249Z,13.1
2022-11-16T15:57:06.038Z,11.4
2022-11-16T15:58:01.032Z,9.7
2022-11-16T15:59:01.030Z,8.1
2022-11-16T16:00:03.526Z,6.9
2022-11-16T16:01:01.089Z,5.7
2022-11-16T16:02:01.031Z,4.9
2022-11-16T16:03:04.209Z,4.2
2022-11-16T16:04:01.310Z,3.5
2022-11-16T16:05:01.247Z,3.0
2022-11-16T16:06:01.037Z,2.5
2022-11-16T16:07:01.079Z,2.3
2022-11-16T16:08:01.036Z,2.0
2022-11-16T16:09:01.040Z,1.7
2022-11-16T16:11:01.064Z,1.3
2022-11-16T16:12:01.181Z,1.2
2022-11-16T16:13:01.063Z,1.1
2022-11-16T16:14:01.029Z,0.9
2022-11-16T16:15:06.873Z,0.8
2022-11-16T16:16:01.058Z,0.7
2022-11-16T16:17:01.030Z,0.6
2022-11-16T16:18:01.043Z,0.5
2022-11-16T16:20:02.859Z,0.4
2022-11-16T16:21:01.486Z,0.3
2022-11-16T16:23:01.240Z,0.2
2022-11-16T16:24:01.062Z,0.1
